Time;durP1;ratioP1;P1;durP2;ratioP2;P2;SDS_P1;SDS_P2;PMS_P1;PMS_P2;Temp;Humidity;BMP_temperature;BMP_pressure;BME280_temperature;BME280_humidity;BME280_pressure;Samples;Min_cycle;Max_cycle;Signal;HPM_P1;HPM_P2
2022/06/09 00:02:01;;;;;;;6.13;5.05;;;;;;;;;;5070842;28;20354;-34
2022/06/09 00:04:26;;;;;;;8.30;6.25;;;;;;;;;;5072078;28;20021;-34
2022/06/09 00:06:58;;;;;;;7.28;6.20;;;;;;;;;;5072086;28;20027;-34
2022/06/09 00:09:27;;;;;;;7.28;6.30;;;;;;;;;;5071943;28;20016;-35
2022/06/09 00:11:53;;;;;;;;;;;;;;;;;;5071524;28;20020;-34
2022/06/09 00:14:18;;;;;;;7.63;6.67;;;;;;;;;;5070717;28;19904;-35
2022/06/09 00:16:44;;;;;;;9.82;6.90;;;;;;;;;;5070500;28;20747;-34
2022/06/09 00:19:10;;;;;;;10.88;6.40;;;;;;;;;;5070739;28;20063;-36
2022/06/09 00:21:36;;;;;;;9.48;7.07;;;;;;;;;;5069590;28;20054;-34
2022/06/09 00:24:03;;;;;;;8.35;6.70;;;;;;;;;;5075021;28;20019;-35
2022/06/09 00:26:29;;;;;;;7.63;5.35;;;;;;;;;;5075574;28;20432;-34
2022/06/09 00:28:54;;;;;;;6.55;5.95;;;;;;;;;;5074351;28;20131;-34
2022/06/09 00:31:20;;;;;;;6.60;5.90;;;;;;;;;;5074759;28;20025;-35
2022/06/09 00:33:46;;;;;;;8.98;6.32;;;;;;;;;;5075378;28;20020;-34
2022/06/09 00:36:11;;;;;;;6.90;5.75;;;;;;;;;;5075551;28;20070;-34
2022/06/09 00:38:36;;;;;;;7.40;5.95;;;;;;;;;;5075606;28;20082;-34
2022/06/09 00:41:02;;;;;;;7.97;6.75;;;;;;;;;;5074461;28;20059;-36
2022/06/09 00:43:28;;;;;;;13.35;6.70;;;;;;;;;;5074745;28;20024;-34
2022/06/09 00:46:03;;;;;;;10.55;7.10;;;;;;;;;;5073967;28;20024;-34
2022/06/09 00:48:46;;;;;;;8.98;6.80;;;;;;;;;;5074170;28;20085;-34
2022/06/09 00:51:27;;;;;;;12.57;7.93;;;;;;;;;;5074833;28;20115;-35
2022/06/09 00:53:54;;;;;;;9.48;7.25;;;;;;;;;;5074933;28;20024;-34
2022/06/09 00:56:20;;;;;;;11.65;7.65;;;;;;;;;;5073623;28;20027;-34
2022/06/09 00:58:47;;;;;;;9.90;7.13;;;;;;;;;;5073970;28;20016;-34
2022/06/09 01:01:15;;;;;;;7.38;6.57;;;;;;;;;;5074378;28;20047;-34
2022/06/09 01:04:01;;;;;;;7.72;6.55;;;;;;;;;;5073305;28;20024;-34
2022/06/09 01:06:28;;;;;;;7.43;6.25;;;;;;;;;;5074838;28;20028;-34
2022/06/09 01:08:58;;;;;;;6.88;5.32;;;;;;;;;;5075138;28;20150;-34
2022/06/09 01:11:24;;;;;;;6.45;5.72;;;;;;;;;;5074030;28;20667;-34
2022/06/09 01:13:49;;;;;;;9.95;7.13;;;;;;;;;;5074452;28;20024;-34
2022/06/09 01:16:17;;;;;;;10.52;6.68;;;;;;;;;;5074626;28;20513;-35
2022/06/09 01:19:00;;;;;;;9.57;7.03;;;;;;;;;;5074791;28;20103;-34
2022/06/09 01:21:48;;;;;;;9.20;7.40;;;;;;;;;;5072396;28;20029;-34
2022/06/09 01:24:23;;;;;;;6.45;5.85;;;;;;;;;;5068414;28;20037;-36
2022/06/09 01:26:56;;;;;;;8.68;6.80;;;;;;;;;;5074727;28;20060;-34
2022/06/09 01:29:28;;;;;;;7.45;6.20;;;;;;;;;;5074324;28;20042;-38
2022/06/09 01:32:13;;;;;;;7.13;6.25;;;;;;;;;;5073587;28;20098;-37
2022/06/09 01:34:57;;;;;;;6.55;5.30;;;;;;;;;;5072682;28;20383;-34
2022/06/09 01:37:25;;;;;;;6.80;5.82;;;;;;;;;;5074259;28;20100;-36
2022/06/09 01:39:56;;;;;;;6.10;5.50;;;;;;;;;;5073802;28;20028;-35
2022/06/09 01:42:34;;;;;;;8.07;6.22;;;;;;;;;;5073605;28;20040;-36
2022/06/09 01:44:59;;;;;;;12.52;6.72;;;;;;;;;;5074371;28;20036;-34
2022/06/09 01:47:30;;;;;;;7.25;6.15;;;;;;;;;;5072732;28;20470;-35
2022/06/09 01:49:57;;;;;;;5.75;5.15;;;;;;;;;;5072610;28;20178;-36
2022/06/09 01:52:23;;;;;;;6.40;5.22;;;;;;;;;;5072998;28;20020;-37
2022/06/09 01:54:49;;;;;;;7.75;6.95;;;;;;;;;;5073005;28;20383;-34
2022/06/09 01:57:19;;;;;;;6.68;5.80;;;;;;;;;;5072875;28;20129;-34
2022/06/09 01:59:50;;;;;;;8.65;6.00;;;;;;;;;;5073879;28;20021;-35
2022/06/09 02:02:18;;;;;;;7.95;6.68;;;;;;;;;;5071612;28;20037;-34
2022/06/09 02:04:45;;;;;;;10.68;7.25;;;;;;;;;;5073767;28;20020;-37
2022/06/09 02:07:12;;;;;;;8.25;7.32;;;;;;;;;;5060082;28;20025;-34
2022/06/09 02:09:38;;;;;;;7.78;6.50;;;;;;;;;;5073676;28;20375;-37
2022/06/09 02:12:16;;;;;;;13.88;7.32;;;;;;;;;;5072936;28;20035;-34
2022/06/09 02:14:46;;;;;;;9.52;8.52;;;;;;;;;;5073568;28;20383;-36
2022/06/09 02:17:11;;;;;;;11.07;9.35;;;;;;;;;;5073494;28;20040;-35
2022/06/09 02:19:38;;;;;;;15.15;8.95;;;;;;;;;;5072158;28;20407;-36
2022/06/09 02:22:05;;;;;;;12.73;9.02;;;;;;;;;;5072427;28;20029;-34
2022/06/09 02:24:32;;;;;;;8.80;7.90;;;;;;;;;;5072157;28;20021;-34
2022/06/09 02:26:57;;;;;;;9.13;7.18;;;;;;;;;;5072171;28;20112;-34
2022/06/09 02:29:23;;;;;;;7.90;7.10;;;;;;;;;;5073325;28;20097;-34
2022/06/09 02:31:48;;;;;;;8.23;7.18;;;;;;;;;;5072113;28;20021;-37
2022/06/09 02:34:13;;;;;;;10.63;8.05;;;;;;;;;;5072949;28;20024;-34
2022/06/09 02:36:39;;;;;;;8.75;7.20;;;;;;;;;;5071902;28;20040;-35
2022/06/09 02:39:06;;;;;;;11.73;6.95;;;;;;;;;;5073216;28;20029;-34
2022/06/09 02:41:31;;;;;;;7.38;6.32;;;;;;;;;;5071850;28;20399;-36
2022/06/09 02:43:57;;;;;;;8.77;7.70;;;;;;;;;;5072726;28;20016;-34
2022/06/09 02:46:22;;;;;;;13.68;7.82;;;;;;;;;;5071011;28;20482;-34
2022/06/09 02:48:48;;;;;;;12.85;8.15;;;;;;;;;;5071478;28;20451;-34
2022/06/09 02:51:33;;;;;;;10.38;6.15;;;;;;;;;;5072237;28;20029;-34
2022/06/09 02:53:59;;;;;;;7.25;6.43;;;;;;;;;;5072587;28;20062;-35
2022/06/09 02:56:25;;;;;;;13.18;7.40;;;;;;;;;;5071516;28;20028;-34
2022/06/09 02:58:51;;;;;;;8.05;6.85;;;;;;;;;;5071456;28;20024;-35
2022/06/09 03:01:17;;;;;;;8.25;7.22;;;;;;;;;;5071573;28;20040;-35
2022/06/09 03:03:42;;;;;;;11.75;7.50;;;;;;;;;;5072366;28;20455;-34
2022/06/09 03:06:08;;;;;;;12.15;7.95;;;;;;;;;;5072599;28;20016;-34
2022/06/09 03:08:33;;;;;;;30.15;9.27;;;;;;;;;;5072883;28;20021;-34
2022/06/09 03:10:58;;;;;;;11.30;7.97;;;;;;;;;;5070896;28;20024;-35
2022/06/09 03:13:24;;;;;;;10.68;8.32;;;;;;;;;;5071898;28;20061;-37
2022/06/09 03:15:50;;;;;;;9.25;6.82;;;;;;;;;;5071085;28;20112;-34
2022/06/09 03:18:16;;;;;;;8.52;6.85;;;;;;;;;;5071334;28;20040;-35
2022/06/09 03:20:41;;;;;;;12.75;8.30;;;;;;;;;;5070754;28;20056;-34
2022/06/09 03:23:07;;;;;;;10.85;7.53;;;;;;;;;;5070325;28;20078;-34
2022/06/09 03:25:32;;;;;;;11.55;7.82;;;;;;;;;;5071072;28;20452;-33
2022/06/09 03:27:58;;;;;;;11.50;8.07;;;;;;;;;;5072359;28;20387;-34
2022/06/09 03:30:23;;;;;;;7.22;6.53;;;;;;;;;;5071819;28;20025;-34
2022/06/09 03:32:48;;;;;;;11.30;6.90;;;;;;;;;;5070395;28;20111;-35
2022/06/09 03:35:14;;;;;;;8.00;5.80;;;;;;;;;;5072075;28;20581;-36
2022/06/09 03:37:39;;;;;;;10.80;7.22;;;;;;;;;;5072609;28;20043;-39
2022/06/09 03:40:06;;;;;;;8.93;6.35;;;;;;;;;;5071739;28;20475;-37
2022/06/09 03:42:32;;;;;;;8.00;6.20;;;;;;;;;;5071421;28;20395;-35
2022/06/09 03:44:57;;;;;;;8.48;6.00;;;;;;;;;;5070424;28;20017;-35
2022/06/09 03:47:22;;;;;;;8.18;6.32;;;;;;;;;;5072242;28;20429;-34
2022/06/09 03:49:48;;;;;;;12.93;6.47;;;;;;;;;;5072076;28;20023;-34
2022/06/09 03:52:14;;;;;;;6.28;5.57;;;;;;;;;;5070123;28;20020;-34
2022/06/09 03:54:39;;;;;;;7.75;6.47;;;;;;;;;;5070677;28;20021;-34
2022/06/09 03:57:05;;;;;;;9.10;7.28;;;;;;;;;;5073972;28;20375;-34
2022/06/09 03:59:30;;;;;;;9.27;7.85;;;;;;;;;;5075791;28;20030;-35
2022/06/09 04:01:56;;;;;;;14.45;8.93;;;;;;;;;;5074001;28;20391;-34
2022/06/09 04:04:21;;;;;;;12.50;7.72;;;;;;;;;;5075845;28;20111;-34
2022/06/09 04:06:46;;;;;;;6.88;6.13;;;;;;;;;;5076058;28;20085;-34
2022/06/09 04:09:12;;;;;;;8.82;7.93;;;;;;;;;;5075987;28;20024;-34
2022/06/09 04:11:37;;;;;;;9.52;7.40;;;;;;;;;;5075185;28;20485;-39
2022/06/09 04:14:03;;;;;;;9.13;8.23;;;;;;;;;;5073888;28;20107;-34
2022/06/09 04:16:28;;;;;;;13.30;8.07;;;;;;;;;;5075891;28;20032;-34
2022/06/09 04:18:54;;;;;;;12.97;9.57;;;;;;;;;;5072401;28;20059;-35
2022/06/09 04:21:20;;;;;;;13.32;8.73;;;;;;;;;;5074796;28;20319;-35
2022/06/09 04:23:46;;;;;;;12.85;9.60;;;;;;;;;;5075175;28;20043;-34
2022/06/09 04:26:16;;;;;;;14.50;9.80;;;;;;;;;;5075633;28;20463;-34
2022/06/09 04:28:42;;;;;;;14.35;10.35;;;;;;;;;;5062492;28;20460;-34
2022/06/09 04:31:07;;;;;;;13.80;10.35;;;;;;;;;;5055095;28;20025;-36
2022/06/09 04:33:32;;;;;;;16.25;11.63;;;;;;;;;;5054859;28;20025;-34
2022/06/09 04:35:58;;;;;;;16.48;10.30;;;;;;;;;;5054296;28;20383;-34
2022/06/09 04:38:23;;;;;;;13.85;7.75;;;;;;;;;;5055399;28;20387;-35
2022/06/09 04:40:48;;;;;;;17.52;9.77;;;;;;;;;;5053226;28;20639;-37
2022/06/09 04:43:14;;;;;;;12.45;9.02;;;;;;;;;;5053105;28;20029;-35
2022/06/09 04:45:40;;;;;;;9.07;7.68;;;;;;;;;;5069735;28;20024;-34
2022/06/09 04:48:06;;;;;;;13.63;8.95;;;;;;;;;;5074045;28;20035;-34
2022/06/09 04:50:32;;;;;;;12.23;9.07;;;;;;;;;;5073480;28;20028;-35
2022/06/09 04:52:57;;;;;;;11.73;9.77;;;;;;;;;;5074476;28;20023;-35
2022/06/09 04:55:23;;;;;;;11.10;6.78;;;;;;;;;;5073771;28;20089;-34
2022/06/09 04:57:48;;;;;;;10.77;8.38;;;;;;;;;;5074951;28;20063;-35
2022/06/09 05:00:15;;;;;;;9.60;8.60;;;;;;;;;;5074538;28;20493;-35
2022/06/09 05:02:40;;;;;;;11.07;9.57;;;;;;;;;;5074268;28;20483;-34
2022/06/09 05:05:06;;;;;;;14.40;9.10;;;;;;;;;;5074884;28;20048;-35
2022/06/09 05:07:32;;;;;;;9.38;6.90;;;;;;;;;;5074758;28;20103;-34
2022/06/09 05:09:57;;;;;;;10.50;8.57;;;;;;;;;;5073972;28;20104;-36
2022/06/09 05:12:23;;;;;;;16.17;8.18;;;;;;;;;;5074201;28;20024;-35
2022/06/09 05:14:48;;;;;;;12.77;8.20;;;;;;;;;;5074553;28;20498;-34
2022/06/09 05:17:14;;;;;;;15.95;8.15;;;;;;;;;;5074768;28;20017;-35
2022/06/09 05:19:39;;;;;;;13.07;7.28;;;;;;;;;;5064921;28;20380;-35
2022/06/09 05:22:04;;;;;;;11.93;7.03;;;;;;;;;;5070081;28;20075;-35
2022/06/09 05:24:30;;;;;;;20.50;12.45;;;;;;;;;;5074215;28;20024;-34
2022/06/09 05:26:56;;;;;;;11.00;8.20;;;;;;;;;;5074391;28;20028;-35
2022/06/09 05:29:21;;;;;;;13.70;6.47;;;;;;;;;;5073356;28;20035;-34
2022/06/09 05:31:46;;;;;;;11.57;6.20;;;;;;;;;;5072440;28;20371;-33
2022/06/09 05:34:12;;;;;;;10.10;5.70;;;;;;;;;;5074067;28;20056;-34
2022/06/09 05:36:38;;;;;;;18.33;7.85;;;;;;;;;;5068860;28;20027;-34
2022/06/09 05:47:19;;;;;;;6.10;5.35;;;;;;;;;;5073235;28;20040;-35
2022/06/09 05:49:47;;;;;;;5.57;4.70;;;;;;;;;;5073956;28;20025;-35
2022/06/09 05:52:12;;;;;;;9.45;5.13;;;;;;;;;;5071729;28;20025;-33
2022/06/09 05:54:38;;;;;;;5.65;4.55;;;;;;;;;;5072655;28;20104;-34
2022/06/09 05:57:03;;;;;;;8.13;4.70;;;;;;;;;;5069181;28;20481;-38
2022/06/09 05:59:29;;;;;;;4.93;4.43;;;;;;;;;;5067468;28;20121;-35
2022/06/09 06:01:54;;;;;;;5.88;4.60;;;;;;;;;;5056857;28;20056;-35
2022/06/09 06:04:19;;;;;;;6.10;4.38;;;;;;;;;;5063350;28;20079;-35
2022/06/09 06:06:45;;;;;;;3.67;3.38;;;;;;;;;;5062711;28;20452;-35
2022/06/09 06:09:18;;;;;;;7.68;3.60;;;;;;;;;;5065568;28;20033;-35
2022/06/09 06:11:44;;;;;;;4.30;3.30;;;;;;;;;;5063940;28;20024;-34
2022/06/09 06:14:10;;;;;;;3.92;3.53;;;;;;;;;;5061991;28;20025;-34
2022/06/09 06:16:36;;;;;;;4.93;3.65;;;;;;;;;;5063663;28;20486;-34
2022/06/09 06:19:02;;;;;;;4.93;4.30;;;;;;;;;;5059255;28;20064;-36
2022/06/09 06:21:27;;;;;;;5.50;3.63;;;;;;;;;;5058886;28;20133;-40
2022/06/09 06:23:55;;;;;;;9.27;3.77;;;;;;;;;;5069614;28;20605;-34
2022/06/09 06:26:20;;;;;;;4.10;3.70;;;;;;;;;;5068778;28;20364;-33
2022/06/09 06:28:46;;;;;;;6.07;4.45;;;;;;;;;;5067081;28;20155;-34
2022/06/09 06:31:12;;;;;;;4.15;3.75;;;;;;;;;;5064693;28;20091;-34
2022/06/09 06:33:37;;;;;;;5.78;4.38;;;;;;;;;;5069816;28;20024;-36
2022/06/09 06:36:03;;;;;;;4.60;4.00;;;;;;;;;;5065033;28;20020;-34
2022/06/09 06:38:28;;;;;;;9.52;4.63;;;;;;;;;;5067793;28;20584;-34
2022/06/09 06:40:54;;;;;;;4.65;4.20;;;;;;;;;;5065150;28;20043;-34
2022/06/09 06:43:20;;;;;;;5.32;4.43;;;;;;;;;;5070476;28;20082;-34
2022/06/09 06:45:46;;;;;;;6.97;4.68;;;;;;;;;;5056908;28;20021;-36
2022/06/09 06:48:11;;;;;;;4.60;4.20;;;;;;;;;;5063271;28;20029;-34
2022/06/09 06:50:37;;;;;;;5.93;4.50;;;;;;;;;;5061327;28;20349;-34
2022/06/09 06:53:02;;;;;;;7.22;4.80;;;;;;;;;;5068218;28;20009;-35
2022/06/09 06:55:29;;;;;;;9.95;5.07;;;;;;;;;;5061486;28;20420;-34
2022/06/09 06:57:54;;;;;;;6.13;5.18;;;;;;;;;;5067887;28;20020;-33
2022/06/09 07:00:21;;;;;;;7.38;3.97;;;;;;;;;;5062308;28;20387;-35
2022/06/09 07:02:47;;;;;;;7.72;4.45;;;;;;;;;;5058580;28;20035;-36
2022/06/09 07:05:13;;;;;;;5.70;4.72;;;;;;;;;;5055421;28;20049;-34
2022/06/09 07:07:39;;;;;;;5.07;4.10;;;;;;;;;;5057465;28;20487;-36
2022/06/09 07:10:05;;;;;;;4.90;4.38;;;;;;;;;;5067082;28;20051;-34
2022/06/09 07:12:30;;;;;;;8.57;4.57;;;;;;;;;;5055811;28;20021;-35
2022/06/09 07:14:56;;;;;;;5.60;4.35;;;;;;;;;;5061890;28;20115;-35
2022/06/09 07:17:21;;;;;;;4.88;3.25;;;;;;;;;;5057882;28;20025;-36
2022/06/09 07:19:46;;;;;;;14.95;4.20;;;;;;;;;;5058203;28;20028;-34
2022/06/09 07:22:12;;;;;;;6.75;3.72;;;;;;;;;;5061799;28;20097;-34
2022/06/09 07:24:37;;;;;;;4.95;3.78;;;;;;;;;;5056679;28;20376;-38
2022/06/09 07:27:03;;;;;;;4.88;3.38;;;;;;;;;;5063467;28;20051;-35
2022/06/09 07:29:28;;;;;;;4.07;2.60;;;;;;;;;;5065405;28;20053;-34
2022/06/09 07:31:54;;;;;;;7.57;2.58;;;;;;;;;;5050910;28;20036;-34
2022/06/09 07:34:20;;;;;;;6.38;2.80;;;;;;;;;;5063049;28;20326;-34
2022/06/09 07:36:46;;;;;;;3.20;2.70;;;;;;;;;;5057490;28;20091;-36
2022/06/09 07:39:11;;;;;;;2.22;2.05;;;;;;;;;;5066941;28;20539;-33
2022/06/09 07:41:38;;;;;;;3.60;2.53;;;;;;;;;;5058693;28;20499;-40
2022/06/09 07:44:04;;;;;;;7.22;2.55;;;;;;;;;;5059858;28;20025;-35
2022/06/09 07:46:30;;;;;;;3.40;2.75;;;;;;;;;;5056647;28;20032;-34
2022/06/09 07:48:56;;;;;;;4.30;3.17;;;;;;;;;;5061539;28;20016;-35
2022/06/09 07:51:21;;;;;;;5.97;3.00;;;;;;;;;;5061672;28;20035;-36
2022/06/09 07:53:47;;;;;;;4.07;3.20;;;;;;;;;;5060071;28;20467;-34
2022/06/09 07:56:12;;;;;;;5.53;3.08;;;;;;;;;;5057262;28;20340;-33
2022/06/09 07:58:38;;;;;;;4.80;3.20;;;;;;;;;;5056087;28;20088;-33
2022/06/09 08:01:03;;;;;;;3.65;3.25;;;;;;;;;;5058098;28;20402;-35
2022/06/09 08:03:29;;;;;;;4.18;3.78;;;;;;;;;;5059104;28;20020;-35
2022/06/09 08:05:54;;;;;;;5.68;4.68;;;;;;;;;;5058191;28;20024;-34
2022/06/09 08:08:20;;;;;;;5.22;3.70;;;;;;;;;;5056788;28;20460;-34
2022/06/09 08:10:46;;;;;;;4.97;4.43;;;;;;;;;;5058952;28;20522;-35
2022/06/09 08:13:12;;;;;;;4.40;3.58;;;;;;;;;;5065656;28;20370;-35
2022/06/09 08:15:37;;;;;;;6.25;4.10;;;;;;;;;;5060117;28;20021;-33
2022/06/09 08:18:03;;;;;;;8.25;4.50;;;;;;;;;;5069454;28;20025;-34
2022/06/09 08:20:30;;;;;;;4.10;3.70;;;;;;;;;;5061893;28;20479;-35
2022/06/09 08:23:02;;;;;;;7.30;3.75;;;;;;;;;;5055438;28;20040;-33
2022/06/09 08:25:27;;;;;;;6.20;3.90;;;;;;;;;;5067700;28;20685;-34
2022/06/09 08:27:52;;;;;;;8.43;3.70;;;;;;;;;;5061459;28;20021;-34
2022/06/09 08:30:18;;;;;;;6.97;3.78;;;;;;;;;;5053209;28;20052;-33
2022/06/09 08:32:43;;;;;;;8.15;3.22;;;;;;;;;;5067731;28;20021;-33
2022/06/09 08:35:11;;;;;;;5.70;2.90;;;;;;;;;;5063604;28;20017;-34
2022/06/09 08:37:37;;;;;;;6.70;3.45;;;;;;;;;;5059967;28;20033;-34
2022/06/09 08:40:03;;;;;;;5.05;3.33;;;;;;;;;;5062182;28;20025;-33
2022/06/09 08:42:34;;;;;;;4.53;3.53;;;;;;;;;;5067629;28;20049;-34
2022/06/09 08:45:02;;;;;;;7.20;3.55;;;;;;;;;;5076373;28;20031;-33
2022/06/09 08:47:41;;;;;;;6.55;4.18;;;;;;;;;;5080876;28;20024;-33
2022/06/09 08:50:19;;;;;;;5.80;3.58;;;;;;;;;;5065441;28;20483;-38
2022/06/09 08:52:47;;;;;;;9.00;4.05;;;;;;;;;;5066556;28;20539;-34
2022/06/09 08:55:17;;;;;;;8.43;4.55;;;;;;;;;;5067280;28;20100;-34
2022/06/09 08:57:43;;;;;;;6.35;4.43;;;;;;;;;;5065010;28;20028;-34
2022/06/09 09:00:10;;;;;;;4.88;4.38;;;;;;;;;;5068537;28;20032;-35
2022/06/09 09:02:35;;;;;;;8.80;4.57;;;;;;;;;;5070876;28;20039;-34
2022/06/09 09:05:06;;;;;;;4.35;3.95;;;;;;;;;;5065333;28;20424;-34
2022/06/09 09:07:33;;;;;;;7.80;4.20;;;;;;;;;;5064723;28;20028;-35
2022/06/09 09:10:19;;;;;;;5.22;4.70;;;;;;;;;;5059611;28;20108;-34
2022/06/09 09:12:50;;;;;;;7.50;4.55;;;;;;;;;;5062461;28;20029;-32
2022/06/09 09:15:27;;;;;;;6.53;4.70;;;;;;;;;;5069819;28;20021;-32
2022/06/09 09:17:52;;;;;;;7.50;4.72;;;;;;;;;;5069721;28;20020;-36
2022/06/09 09:20:24;;;;;;;7.35;4.50;;;;;;;;;;5056341;28;20468;-40
2022/06/09 09:22:56;;;;;;;6.03;4.57;;;;;;;;;;5072716;28;20127;-35
2022/06/09 09:25:25;;;;;;;5.72;4.20;;;;;;;;;;5065052;28;20070;-34
2022/06/09 09:27:50;;;;;;;;;;;;;;;;;;5068020;28;20086;-35
2022/06/09 09:30:21;;;;;;;5.20;4.70;;;;;;;;;;5064134;28;19908;-36
2022/06/09 09:32:48;;;;;;;5.30;4.32;;;;;;;;;;5074010;28;20028;-37
2022/06/09 09:35:19;;;;;;;5.90;4.80;;;;;;;;;;5066889;28;20020;-34
2022/06/09 09:37:46;;;;;;;6.25;4.47;;;;;;;;;;5059994;28;20042;-34
2022/06/09 09:40:11;;;;;;;5.80;4.47;;;;;;;;;;5058842;28;20056;-34
2022/06/09 09:42:38;;;;;;;6.07;5.10;;;;;;;;;;5058359;28;20463;-34
2022/06/09 09:45:09;;;;;;;6.70;5.55;;;;;;;;;;5058282;28;20035;-33
2022/06/09 09:47:43;;;;;;;9.10;5.22;;;;;;;;;;5062883;28;20029;-35
2022/06/09 09:50:17;;;;;;;7.68;4.57;;;;;;;;;;5064875;28;20020;-35
2022/06/09 09:52:45;;;;;;;5.40;4.90;;;;;;;;;;5056192;28;20033;-34
2022/06/09 09:55:27;;;;;;;11.52;5.15;;;;;;;;;;5062024;28;20024;-34
2022/06/09 09:58:13;;;;;;;8.35;5.47;;;;;;;;;;5058834;28;20025;-41
2022/06/09 10:00:39;;;;;;;5.55;4.60;;;;;;;;;;5061744;28;20120;-35
2022/06/09 10:08:45;;;;;;;5.35;3.92;;;;;;;;;;5060772;28;20487;-41
2022/06/09 10:14:01;;;;;;;4.35;3.95;;;;;;;;;;5067163;28;20043;-49
2022/06/09 10:16:29;;;;;;;6.07;4.53;;;;;;;;;;5067736;28;20035;-43
2022/06/09 10:18:58;;;;;;;6.82;5.22;;;;;;;;;;5057881;28;20095;-44
2022/06/09 10:21:24;;;;;;;17.48;8.25;;;;;;;;;;5056625;28;20036;-40
2022/06/09 10:23:56;;;;;;;5.55;4.20;;;;;;;;;;5064856;28;20024;-33
2022/06/09 10:26:21;;;;;;;6.28;4.78;;;;;;;;;;5064065;28;20387;-43
2022/06/09 10:29:05;;;;;;;7.03;4.57;;;;;;;;;;5062157;28;20028;-37
2022/06/09 10:31:40;;;;;;;5.53;4.20;;;;;;;;;;5060353;28;20033;-38
2022/06/09 10:34:18;;;;;;;5.85;3.25;;;;;;;;;;5055134;28;20025;-38
2022/06/09 10:36:49;;;;;;;3.30;3.00;;;;;;;;;;5067859;28;20424;-39
2022/06/09 10:39:44;;;;;;;5.28;3.13;;;;;;;;;;5062686;28;20078;-38
2022/06/09 10:42:21;;;;;;;4.18;3.25;;;;;;;;;;5043701;28;20098;-38
2022/06/09 10:44:49;;;;;;;5.38;3.03;;;;;;;;;;5066142;28;20467;-35
2022/06/09 10:55:45;;;;;;;2.97;2.67;;;;;;;;;;5060401;28;20027;-34
2022/06/09 10:58:29;;;;;;;6.60;2.83;;;;;;;;;;5071156;28;20036;-38
2022/06/09 11:00:56;;;;;;;5.18;3.28;;;;;;;;;;5070467;28;20087;-35
2022/06/09 11:03:23;;;;;;;3.40;2.97;;;;;;;;;;5070805;28;20024;-38
2022/06/09 11:05:53;;;;;;;4.32;2.90;;;;;;;;;;5070620;28;20032;-35
2022/06/09 11:08:35;;;;;;;3.05;2.75;;;;;;;;;;5057052;28;20032;-35
2022/06/09 11:11:01;;;;;;;2.88;2.50;;;;;;;;;;5069137;28;20089;-35
2022/06/09 11:13:35;;;;;;;4.43;3.13;;;;;;;;;;5069459;28;20032;-35
2022/06/09 11:16:10;;;;;;;3.42;3.05;;;;;;;;;;5070191;28;20034;-33
2022/06/09 11:18:41;;;;;;;4.82;3.05;;;;;;;;;;5064598;28;20520;-34
2022/06/09 11:21:15;;;;;;;4.68;3.30;;;;;;;;;;5069984;28;20025;-35
2022/06/09 11:23:46;;;;;;;11.40;4.25;;;;;;;;;;5069766;28;20025;-35
2022/06/09 11:26:12;;;;;;;7.22;4.68;;;;;;;;;;5058666;28;20040;-36
2022/06/09 11:28:40;;;;;;;8.07;5.28;;;;;;;;;;5051890;28;20021;-38
2022/06/09 11:31:05;;;;;;;8.88;4.78;;;;;;;;;;5050142;28;20028;-34
2022/06/09 11:33:47;;;;;;;9.55;4.45;;;;;;;;;;5049116;28;20023;-38
2022/06/09 11:36:15;;;;;;;5.95;4.40;;;;;;;;;;5051602;28;20028;-34
2022/06/09 11:38:44;;;;;;;6.97;5.45;;;;;;;;;;5051182;28;20029;-35
2022/06/09 11:41:15;;;;;;;12.13;5.25;;;;;;;;;;5048326;28;20053;-33
2022/06/09 11:43:52;;;;;;;7.40;5.15;;;;;;;;;;5048883;28;20029;-33
2022/06/09 11:46:20;;;;;;;7.60;5.85;;;;;;;;;;5050455;28;20036;-33
2022/06/09 11:48:48;;;;;;;7.05;5.25;;;;;;;;;;5051195;28;20025;-34
2022/06/09 11:51:21;;;;;;;7.28;5.78;;;;;;;;;;5061200;28;20024;-34
2022/06/09 11:53:51;;;;;;;10.30;6.28;;;;;;;;;;5070172;28;20463;-36
2022/06/09 11:56:33;;;;;;;10.05;6.10;;;;;;;;;;5069700;28;20031;-34
2022/06/09 11:58:58;;;;;;;9.10;4.88;;;;;;;;;;5067565;28;20971;-33
2022/06/09 12:01:29;;;;;;;5.80;4.93;;;;;;;;;;5063660;28;20078;-39
2022/06/09 12:04:14;;;;;;;6.53;4.72;;;;;;;;;;5058091;28;20548;-33
2022/06/09 12:06:51;;;;;;;5.85;4.80;;;;;;;;;;5066588;28;20090;-33
2022/06/09 12:09:19;;;;;;;6.10;5.05;;;;;;;;;;5070914;28;20033;-34
2022/06/09 12:11:59;;;;;;;6.75;5.10;;;;;;;;;;5069473;28;20021;-33
2022/06/09 12:14:24;;;;;;;;;;;;;;;;;;5071126;28;20383;-33
2022/06/09 12:16:52;;;;;;;5.70;4.70;;;;;;;;;;5070852;28;20359;-34
2022/06/09 12:19:23;;;;;;;9.85;4.97;;;;;;;;;;5074465;28;20033;-34
2022/06/09 12:21:50;;;;;;;12.32;5.47;;;;;;;;;;5073283;28;20036;-33
2022/06/09 12:24:16;;;;;;;6.97;4.78;;;;;;;;;;5074111;28;20066;-34
2022/06/09 12:26:44;;;;;;;9.68;4.80;;;;;;;;;;5074436;28;20650;-34
2022/06/09 12:29:29;;;;;;;8.32;6.07;;;;;;;;;;5073283;28;20368;-33
2022/06/09 12:32:09;;;;;;;6.68;5.05;;;;;;;;;;5071332;28;20031;-35
2022/06/09 12:34:41;;;;;;;9.63;5.57;;;;;;;;;;5074367;28;20078;-33
2022/06/09 12:37:17;;;;;;;12.32;6.30;;;;;;;;;;5062874;28;20035;-31
2022/06/09 12:39:46;;;;;;;12.35;6.18;;;;;;;;;;5065239;28;20395;-32
2022/06/09 12:42:23;;;;;;;10.77;7.45;;;;;;;;;;5057646;28;20052;-32
2022/06/09 12:44:53;;;;;;;17.73;8.35;;;;;;;;;;5074378;28;20374;-33
2022/06/09 12:47:21;;;;;;;13.25;7.88;;;;;;;;;;5073990;28;20078;-31
2022/06/09 12:49:54;;;;;;;13.52;7.22;;;;;;;;;;5068521;28;20091;-40
2022/06/09 12:52:35;;;;;;;10.93;6.07;;;;;;;;;;5050837;28;20052;-37
2022/06/09 12:55:05;;;;;;;10.57;5.97;;;;;;;;;;5065902;28;20037;-41
2022/06/09 12:57:32;;;;;;;9.45;5.13;;;;;;;;;;5070840;28;20119;-40
2022/06/09 13:00:04;;;;;;;7.32;4.50;;;;;;;;;;5066960;28;20025;-42
2022/06/09 13:02:32;;;;;;;6.20;3.67;;;;;;;;;;5070423;28;20036;-39
2022/06/09 13:05:13;;;;;;;10.27;4.43;;;;;;;;;;5058659;28;20483;-40
2022/06/09 13:07:48;;;;;;;6.72;4.50;;;;;;;;;;5060617;28;20056;-45
2022/06/09 13:10:13;;;;;;;8.77;4.75;;;;;;;;;;5055173;28;20017;-40
2022/06/09 13:12:52;;;;;;;7.68;3.70;;;;;;;;;;5059602;28;20031;-41
2022/06/09 13:15:37;;;;;;;4.60;3.33;;;;;;;;;;5067649;28;20471;-37
2022/06/09 13:18:14;;;;;;;4.45;2.50;;;;;;;;;;5065776;28;20162;-46
2022/06/09 13:20:40;;;;;;;4.82;2.50;;;;;;;;;;5064110;28;20487;-45
2022/06/09 13:23:07;;;;;;;3.65;2.20;;;;;;;;;;5062422;28;20030;-44
2022/06/09 13:25:32;;;;;;;3.25;2.53;;;;;;;;;;5069339;28;20071;-43
2022/06/09 13:27:58;;;;;;;3.45;2.40;;;;;;;;;;5067022;28;20105;-45
2022/06/09 13:30:41;;;;;;;3.60;2.75;;;;;;;;;;5060409;28;20029;-41
2022/06/09 13:33:26;;;;;;;8.13;2.80;;;;;;;;;;5066401;28;20066;-43
2022/06/09 13:35:54;;;;;;;3.88;2.42;;;;;;;;;;5071356;28;20103;-40
2022/06/09 13:38:33;;;;;;;3.05;2.20;;;;;;;;;;5065367;28;20463;-42
2022/06/09 13:41:00;;;;;;;5.37;2.63;;;;;;;;;;5065850;28;20133;-46
2022/06/09 13:43:30;;;;;;;7.55;3.45;;;;;;;;;;5061112;28;20041;-44
2022/06/09 13:46:05;;;;;;;20.63;4.70;;;;;;;;;;5059043;28;20017;-44
2022/06/09 13:48:40;;;;;;;9.98;3.60;;;;;;;;;;5069909;28;20027;-45
2022/06/09 13:51:07;;;;;;;4.07;2.28;;;;;;;;;;5061238;28;20028;-47
2022/06/09 13:53:49;;;;;;;4.97;2.03;;;;;;;;;;5065932;28;20075;-44
2022/06/09 13:56:15;;;;;;;5.13;2.35;;;;;;;;;;5069578;28;20071;-47
2022/06/09 13:58:40;;;;;;;549.22;63.80;;;;;;;;;;5062282;28;20053;-45
2022/06/09 14:01:06;;;;;;;26.50;6.03;;;;;;;;;;5067003;28;20113;-46
2022/06/09 14:03:35;;;;;;;13.68;3.42;;;;;;;;;;5057103;28;20116;-49
2022/06/09 14:06:02;;;;;;;12.27;3.65;;;;;;;;;;5071423;28;20016;-44
2022/06/09 14:08:29;;;;;;;15.32;3.95;;;;;;;;;;5053952;28;20025;-44
2022/06/09 14:10:55;;;;;;;11.27;4.28;;;;;;;;;;5055717;28;20130;-45
2022/06/09 14:13:20;;;;;;;6.78;2.92;;;;;;;;;;5069949;28;20111;-45
2022/06/09 14:15:46;;;;;;;4.57;2.90;;;;;;;;;;5069665;28;20052;-46
2022/06/09 14:18:22;;;;;;;4.93;2.75;;;;;;;;;;5064588;28;20024;-45
2022/06/09 14:20:48;;;;;;;5.40;2.70;;;;;;;;;;5064089;28;20068;-45
2022/06/09 14:23:17;;;;;;;12.55;2.85;;;;;;;;;;5056305;28;20052;-50
2022/06/09 14:25:42;;;;;;;9.98;2.90;;;;;;;;;;5064022;28;20032;-46
2022/06/09 14:28:09;;;;;;;8.73;2.78;;;;;;;;;;5063836;28;20021;-46
2022/06/09 14:30:35;;;;;;;6.38;3.17;;;;;;;;;;5063568;28;20053;-48
2022/06/09 14:33:00;;;;;;;3.88;2.67;;;;;;;;;;5049337;28;20028;-45
2022/06/09 14:35:25;;;;;;;8.23;2.97;;;;;;;;;;5061316;28;20021;-43
2022/06/09 14:37:50;;;;;;;7.57;3.65;;;;;;;;;;5058142;28;20025;-44
2022/06/09 14:40:21;;;;;;;4.32;3.30;;;;;;;;;;5058633;28;20024;-40
2022/06/09 14:42:47;;;;;;;3.50;3.20;;;;;;;;;;5061698;28;20091;-42
2022/06/09 14:45:12;;;;;;;4.47;3.43;;;;;;;;;;5055818;28;20487;-37
2022/06/09 14:47:37;;;;;;;5.50;3.70;;;;;;;;;;5059480;28;20249;-42
2022/06/09 14:50:03;;;;;;;4.10;3.10;;;;;;;;;;5066522;28;20017;-39
2022/06/09 14:52:28;;;;;;;3.83;2.83;;;;;;;;;;5066426;28;20515;-42
2022/06/09 14:54:54;;;;;;;6.63;3.00;;;;;;;;;;5068996;28;20052;-42
2022/06/09 14:57:20;;;;;;;4.53;2.95;;;;;;;;;;5069645;28;20435;-41
2022/06/09 14:59:46;;;;;;;5.10;3.50;;;;;;;;;;5069803;28;20020;-50
2022/06/09 15:02:15;;;;;;;3.97;2.80;;;;;;;;;;5068558;28;20412;-44
2022/06/09 15:04:40;;;;;;;3.30;2.65;;;;;;;;;;5069701;28;20481;-42
2022/06/09 15:07:05;;;;;;;6.65;2.95;;;;;;;;;;5070074;28;20052;-41
2022/06/09 15:09:32;;;;;;;5.43;2.72;;;;;;;;;;5069640;28;20108;-43
2022/06/09 15:11:57;;;;;;;6.18;2.83;;;;;;;;;;5069268;28;20048;-42
2022/06/09 15:14:23;;;;;;;3.25;2.80;;;;;;;;;;5068757;28;20383;-43